Time;durP1;ratioP1;P1;durP2;ratioP2;P2;SDS_P1;SDS_P2;PMS_P1;PMS_P2;Temp;Humidity;BMP_temperature;BMP_pressure;BME280_temperature;BME280_humidity;BME280_pressure;Samples;Min_cycle;Max_cycle;Signal;HPM_P1;HPM_P2
2023/12/29 00:00:52;;;;;;;4.20;2.60;;;7.20;99.90;;;;;;2080923;28;20703;-81
2023/12/29 00:01:52;;;;;;;3.60;2.47;;;7.20;99.90;;;;;;2086008;28;20188;-82
2023/12/29 00:02:53;;;;;;;3.70;2.70;;;7.10;99.90;;;;;;2088710;28;20541;-82
2023/12/29 00:03:53;;;;;;;3.72;2.40;;;7.10;99.90;;;;;;2079472;28;20527;-82
2023/12/29 00:04:54;;;;;;;4.80;2.65;;;7.10;99.90;;;;;;2069303;28;20030;-82
2023/12/29 00:05:55;;;;;;;3.30;2.53;;;7.10;99.90;;;;;;2068293;28;20041;-82
2023/12/29 00:06:55;;;;;;;3.35;2.55;;;7.00;99.90;;;;;;2080251;28;20029;-82
2023/12/29 00:07:56;;;;;;;3.47;2.67;;;7.10;99.90;;;;;;2079526;28;20049;-82
2023/12/29 00:08:56;;;;;;;3.20;2.50;;;7.00;99.90;;;;;;2085589;28;20028;-81
2023/12/29 00:09:57;;;;;;;3.92;2.50;;;7.00;99.90;;;;;;2080185;28;20033;-83
2023/12/29 00:10:58;;;;;;;3.13;2.70;;;6.90;99.90;;;;;;2079371;28;20087;-82
2023/12/29 00:11:58;;;;;;;5.80;2.80;;;6.90;99.90;;;;;;2079383;28;20025;-82
2023/12/29 00:12:59;;;;;;;4.47;2.60;;;6.90;99.90;;;;;;2068445;28;20018;-82
2023/12/29 00:14:01;;;;;;;4.47;2.72;;;6.80;99.90;;;;;;2080138;28;20029;-82
2023/12/29 00:15:02;;;;;;;4.28;2.80;;;6.80;99.90;;;;;;2080828;28;20028;-82
2023/12/29 00:16:03;;;;;;;4.10;2.90;;;6.80;99.90;;;;;;2074912;28;20040;-82
2023/12/29 00:17:04;;;;;;;3.70;2.72;;;6.80;99.90;;;;;;2072226;28;20483;-81
2023/12/29 00:18:05;;;;;;;3.75;2.75;;;6.70;99.90;;;;;;2081179;28;20380;-81
2023/12/29 00:19:05;;;;;;;4.47;2.80;;;6.70;99.90;;;;;;2077645;28;20037;-82
2023/12/29 00:20:10;;;;;;;3.88;2.70;;;6.70;99.90;;;;;;2088861;28;20310;-81
2023/12/29 00:21:10;;;;;;;3.65;2.80;;;6.60;99.90;;;;;;2088983;28;20051;-82
2023/12/29 00:22:11;;;;;;;4.10;2.88;;;6.60;99.90;;;;;;2078901;28;20515;-81
2023/12/29 00:23:11;;;;;;;3.35;2.88;;;6.50;99.90;;;;;;2089720;28;20501;-83
2023/12/29 00:24:12;;;;;;;3.92;2.78;;;6.50;99.90;;;;;;2088503;28;20080;-83
2023/12/29 00:25:12;;;;;;;4.60;2.85;;;6.40;99.90;;;;;;2082872;28;20040;-84
2023/12/29 00:26:15;;;;;;;5.47;2.97;;;6.40;99.90;;;;;;2079463;28;20025;-83
2023/12/29 00:27:16;;;;;;;5.03;3.03;;;6.40;99.90;;;;;;2088808;28;20021;-83
2023/12/29 00:28:17;;;;;;;5.20;2.90;;;6.40;99.90;;;;;;2091641;28;20495;-82
2023/12/29 00:29:18;;;;;;;3.83;3.00;;;6.40;99.90;;;;;;2083058;28;20010;-82
2023/12/29 00:30:20;;;;;;;4.88;2.80;;;6.40;99.90;;;;;;2084266;28;20037;-80
2023/12/29 00:31:20;;;;;;;3.30;2.65;;;6.40;99.90;;;;;;2076574;28;20033;-82
2023/12/29 00:32:21;;;;;;;4.50;2.70;;;6.40;99.90;;;;;;2086568;28;20032;-83
2023/12/29 00:33:21;;;;;;;3.95;2.80;;;6.70;99.90;;;;;;2093813;28;20059;-82
2023/12/29 00:34:22;;;;;;;4.25;2.60;;;6.90;99.90;;;;;;2083645;28;20037;-80
2023/12/29 00:35:22;;;;;;;3.58;2.58;;;7.10;99.90;;;;;;2087655;28;20120;-81
2023/12/29 00:36:24;;;;;;;3.88;2.70;;;7.20;99.90;;;;;;2085379;28;21379;-81
2023/12/29 00:37:24;;;;;;;3.03;2.60;;;7.30;99.90;;;;;;2083133;28;20045;-82
2023/12/29 00:38:27;;;;;;;4.00;2.65;;;7.40;99.90;;;;;;2084487;28;20033;-82
2023/12/29 00:39:38;;;;;;;3.10;2.53;;;7.50;99.90;;;;;;2081700;28;20060;-81
2023/12/29 00:40:38;;;;;;;2.95;2.50;;;7.60;99.90;;;;;;2075007;28;20510;-83
2023/12/29 00:41:40;;;;;;;4.50;2.65;;;7.60;99.90;;;;;;2089349;28;20091;-82
2023/12/29 00:42:41;;;;;;;3.13;2.30;;;7.60;99.90;;;;;;2080106;28;20029;-82
2023/12/29 00:43:42;;;;;;;4.70;2.65;;;7.60;99.90;;;;;;2077349;28;20113;-83
2023/12/29 00:44:42;;;;;;;3.92;2.53;;;7.60;99.90;;;;;;2084080;28;20028;-82
2023/12/29 00:45:43;;;;;;;2.75;2.55;;;7.60;99.90;;;;;;2072038;28;20108;-82
2023/12/29 00:46:43;;;;;;;3.40;2.50;;;7.60;99.90;;;;;;2060440;28;20505;-82
2023/12/29 00:47:44;;;;;;;3.97;2.30;;;7.60;99.90;;;;;;2068683;28;20473;-82
2023/12/29 00:48:44;;;;;;;2.80;2.53;;;7.70;99.90;;;;;;2077799;28;20025;-83
2023/12/29 00:49:45;;;;;;;3.33;2.42;;;7.70;99.90;;;;;;2087598;28;20106;-83
2023/12/29 00:50:46;;;;;;;3.75;2.50;;;7.80;99.90;;;;;;2079890;28;20105;-82
2023/12/29 00:51:47;;;;;;;3.17;2.53;;;7.80;99.90;;;;;;2077041;28;20029;-84
2023/12/29 00:52:48;;;;;;;3.78;2.40;;;7.80;99.90;;;;;;2075545;28;20433;-82
2023/12/29 00:53:50;;;;;;;4.20;2.40;;;7.80;99.90;;;;;;2079998;28;20033;-83
2023/12/29 00:54:50;;;;;;;3.25;2.35;;;7.80;99.90;;;;;;2076442;28;20043;-83
2023/12/29 00:55:51;;;;;;;3.75;2.65;;;7.70;99.90;;;;;;2073180;28;20108;-82
2023/12/29 00:56:52;;;;;;;3.63;2.47;;;7.70;99.90;;;;;;2087367;28;20045;-83
2023/12/29 00:57:53;;;;;;;2.90;2.40;;;7.80;99.90;;;;;;2078417;28;20048;-83
2023/12/29 00:58:54;;;;;;;3.45;2.30;;;7.80;99.90;;;;;;2080407;28;20060;-81
2023/12/29 00:59:54;;;;;;;2.63;2.20;;;7.80;99.90;;;;;;2087038;28;20578;-82
2023/12/29 01:00:55;;;;;;;2.50;2.25;;;7.80;99.90;;;;;;2079733;28;20033;-83
2023/12/29 01:01:56;;;;;;;2.40;2.15;;;7.80;99.90;;;;;;2077807;28;20045;-83
2023/12/29 01:02:56;;;;;;;3.10;2.20;;;7.80;99.90;;;;;;2076675;28;20021;-82
2023/12/29 01:03:57;;;;;;;2.47;2.20;;;7.90;99.90;;;;;;2077516;28;20022;-83
2023/12/29 01:04:57;;;;;;;5.20;2.28;;;7.90;99.90;;;;;;2081777;28;20032;-82
2023/12/29 01:05:59;;;;;;;4.35;2.22;;;7.90;99.90;;;;;;2079638;28;20040;-82
2023/12/29 01:07:01;;;;;;;2.80;2.22;;;7.90;99.90;;;;;;2077476;28;20049;-82
2023/12/29 01:08:01;;;;;;;2.80;2.13;;;7.90;99.90;;;;;;2080206;28;20481;-82
2023/12/29 01:09:02;;;;;;;4.40;2.25;;;7.80;99.90;;;;;;2080759;28;20531;-82
2023/12/29 01:10:03;;;;;;;4.32;2.33;;;7.80;99.90;;;;;;2080816;28;20640;-82
2023/12/29 01:11:03;;;;;;;3.78;2.20;;;7.80;99.90;;;;;;2071931;28;20034;-83
2023/12/29 01:12:04;;;;;;;2.80;2.10;;;7.90;99.90;;;;;;2080392;28;20028;-83
2023/12/29 01:13:05;;;;;;;2.40;2.15;;;7.90;99.90;;;;;;2074059;28;20499;-82
2023/12/29 01:14:06;;;;;;;4.63;2.47;;;7.90;99.90;;;;;;2081924;28;20048;-83
2023/12/29 01:15:07;;;;;;;3.78;2.17;;;7.80;99.90;;;;;;2072461;28;20025;-82
2023/12/29 01:16:08;;;;;;;2.75;2.10;;;7.70;99.90;;;;;;2070606;28;20036;-83
2023/12/29 01:17:08;;;;;;;2.40;2.20;;;7.60;99.90;;;;;;2079576;28;20026;-82
2023/12/29 01:18:09;;;;;;;2.20;2.00;;;7.60;99.90;;;;;;2080816;28;20017;-82
2023/12/29 01:19:09;;;;;;;2.70;2.20;;;7.60;99.90;;;;;;2085626;28;20017;-82
2023/12/29 01:20:10;;;;;;;3.13;2.00;;;7.60;99.90;;;;;;2080359;28;20059;-83
2023/12/29 01:21:11;;;;;;;3.03;2.17;;;7.60;99.90;;;;;;2080648;28;20037;-82
2023/12/29 01:22:11;;;;;;;2.50;2.22;;;7.60;99.90;;;;;;2079461;28;20075;-82
2023/12/29 01:23:12;;;;;;;2.35;2.10;;;7.60;99.90;;;;;;2077048;28;20033;-83
2023/12/29 01:24:12;;;;;;;2.45;2.00;;;7.60;99.90;;;;;;2087811;28;20033;-82
2023/12/29 01:25:13;;;;;;;2.95;2.00;;;7.60;99.90;;;;;;2080492;28;20031;-82
2023/12/29 01:26:14;;;;;;;4.55;2.00;;;7.60;99.90;;;;;;2069225;28;20223;-82
2023/12/29 01:27:14;;;;;;;3.72;2.15;;;7.60;99.90;;;;;;2079041;28;20032;-81
2023/12/29 01:28:15;;;;;;;2.60;2.10;;;7.60;99.90;;;;;;2088627;28;20506;-82
2023/12/29 01:29:16;;;;;;;3.83;2.00;;;7.50;99.90;;;;;;2069092;28;20025;-82
2023/12/29 01:30:17;;;;;;;3.05;2.13;;;7.50;99.90;;;;;;2062474;28;20568;-79
2023/12/29 01:31:17;;;;;;;3.08;2.10;;;7.60;99.90;;;;;;2064360;28;20030;-81
2023/12/29 01:32:21;;;;;;;2.65;2.15;;;7.60;99.90;;;;;;2065469;28;20037;-83
2023/12/29 01:33:22;;;;;;;2.25;2.00;;;7.60;99.90;;;;;;2063240;28;20037;-82
2023/12/29 01:34:23;;;;;;;2.30;2.08;;;7.60;99.90;;;;;;2078598;28;20019;-83
2023/12/29 01:35:23;;;;;;;2.28;2.08;;;7.60;99.90;;;;;;2084008;28;20032;-82
2023/12/29 01:36:24;;;;;;;2.10;1.88;;;7.70;99.90;;;;;;2061920;28;20496;-82
2023/12/29 01:37:25;;;;;;;2.85;1.90;;;7.70;99.90;;;;;;2060453;28;20154;-82
2023/12/29 01:38:26;;;;;;;2.10;1.90;;;7.80;99.90;;;;;;2069674;28;20420;-82
2023/12/29 01:39:26;;;;;;;2.28;1.85;;;7.70;99.90;;;;;;2088539;28;20503;-82
2023/12/29 01:40:27;;;;;;;2.30;2.00;;;7.80;99.90;;;;;;2079889;28;20454;-81
2023/12/29 01:41:27;;;;;;;2.58;1.83;;;7.80;99.90;;;;;;2080504;28;20484;-81
2023/12/29 01:42:28;;;;;;;1.88;1.77;;;7.80;99.90;;;;;;2077647;28;20036;-82
2023/12/29 01:43:28;;;;;;;2.40;2.00;;;7.80;99.90;;;;;;2080003;28;20025;-81
2023/12/29 01:44:29;;;;;;;2.60;1.90;;;7.80;99.90;;;;;;2070271;28;20036;-82
2023/12/29 01:45:29;;;;;;;2.10;1.90;;;7.80;99.90;;;;;;2080843;28;20030;-82
2023/12/29 01:46:34;;;;;;;2.75;2.10;;;7.70;99.90;;;;;;2086371;28;20029;-82
2023/12/29 01:47:34;;;;;;;3.33;1.90;;;7.70;99.90;;;;;;2068257;28;20503;-82
2023/12/29 01:48:35;;;;;;;3.17;1.90;;;7.60;99.90;;;;;;2071301;28;20034;-82
2023/12/29 01:49:36;;;;;;;2.47;1.90;;;7.70;99.90;;;;;;2089135;28;20025;-83
2023/12/29 01:50:37;;;;;;;2.03;1.83;;;7.70;99.90;;;;;;2088331;28;20040;-83
2023/12/29 01:51:37;;;;;;;2.30;1.80;;;7.80;99.90;;;;;;2071038;28;20040;-77
2023/12/29 01:52:39;;;;;;;7.25;2.00;;;7.90;99.90;;;;;;2071288;28;20131;-81
2023/12/29 01:53:40;;;;;;;3.20;1.80;;;7.90;99.90;;;;;;2083147;28;20101;-82
2023/12/29 01:54:42;;;;;;;2.08;1.80;;;7.80;99.90;;;;;;2076685;28;20040;-82
2023/12/29 01:55:43;;;;;;;2.00;1.80;;;7.80;99.90;;;;;;2079576;28;20033;-83
2023/12/29 01:56:45;;;;;;;3.58;1.67;;;7.90;99.90;;;;;;2080221;28;20590;-83
2023/12/29 01:57:47;;;;;;;2.50;1.83;;;7.90;99.90;;;;;;2076037;28;20404;-81
2023/12/29 01:58:51;;;;;;;2.08;1.65;;;8.00;99.90;;;;;;2060301;28;20030;-82
2023/12/29 01:59:52;;;;;;;1.92;1.55;;;8.00;99.90;;;;;;2062470;28;20045;-82
2023/12/29 02:00:53;;;;;;;1.70;1.60;;;8.00;99.90;;;;;;2066223;28;20030;-83
2023/12/29 02:01:57;;;;;;;1.70;1.60;;;8.00;99.90;;;;;;2076015;28;20056;-83
2023/12/29 02:02:59;;;;;;;1.58;1.48;;;8.00;99.90;;;;;;2061820;28;20098;-82
2023/12/29 02:03:59;;;;;;;2.05;1.50;;;8.00;99.90;;;;;;2061532;28;20033;-83
2023/12/29 02:05:00;;;;;;;1.55;1.40;;;8.00;99.90;;;;;;2068376;28;20520;-83
2023/12/29 02:06:01;;;;;;;2.00;1.45;;;8.00;99.90;;;;;;2080601;28;20033;-82
2023/12/29 02:07:02;;;;;;;1.60;1.48;;;8.10;99.90;;;;;;2078516;28;20056;-79
2023/12/29 02:08:03;;;;;;;2.17;1.30;;;8.10;99.90;;;;;;2068458;28;20615;-83
2023/12/29 02:09:04;;;;;;;1.40;1.30;;;8.10;99.90;;;;;;2063046;28;20054;-83
2023/12/29 02:10:05;;;;;;;1.67;1.50;;;8.20;99.90;;;;;;2063265;28;20037;-82
2023/12/29 02:11:06;;;;;;;2.80;1.50;;;8.20;99.90;;;;;;2060227;28;20030;-82
2023/12/29 02:12:07;;;;;;;1.60;1.50;;;8.10;99.90;;;;;;2067492;28;20507;-84
2023/12/29 02:13:08;;;;;;;3.30;1.40;;;8.20;99.90;;;;;;2068748;28;20031;-83
2023/12/29 02:14:09;;;;;;;2.45;1.50;;;8.30;99.90;;;;;;2064150;28;20073;-83
2023/12/29 02:15:10;;;;;;;1.40;1.30;;;8.30;99.90;;;;;;2075998;28;20037;-81
2023/12/29 02:16:40;;;;;;;1.60;1.40;;;8.30;99.90;;;;;;2085844;28;20056;-83
2023/12/29 02:17:49;;;;;;;1.48;1.35;;;8.40;99.90;;;;;;2077358;28;20030;-82
2023/12/29 02:18:50;;;;;;;1.58;1.40;;;8.30;99.90;;;;;;2087222;28;20060;-84
2023/12/29 02:19:52;;;;;;;1.90;1.50;;;8.30;99.90;;;;;;2080795;28;20033;-84
2023/12/29 02:20:52;;;;;;;1.42;1.33;;;8.20;99.90;;;;;;2077609;28;20116;-83
2023/12/29 02:21:53;;;;;;;2.30;1.60;;;8.20;99.90;;;;;;2078467;28;20037;-82
2023/12/29 02:22:54;;;;;;;1.88;1.45;;;8.20;99.90;;;;;;2087752;28;20032;-82
2023/12/29 02:23:55;;;;;;;1.50;1.40;;;8.20;99.90;;;;;;2076112;28;20014;-83
2023/12/29 02:24:56;;;;;;;2.33;1.40;;;8.10;99.90;;;;;;2075913;28;20075;-83
2023/12/29 02:26:07;;;;;;;1.70;1.60;;;8.20;99.90;;;;;;2084704;28;20076;-83
2023/12/29 02:27:58;;;;;;;1.40;1.30;;;8.10;99.90;;;;;;2078198;28;20021;-82
2023/12/29 02:29:05;;;;;;;1.48;1.38;;;8.10;99.90;;;;;;2074793;28;20029;-82
2023/12/29 02:30:15;;;;;;;1.60;1.50;;;8.10;99.90;;;;;;2074189;28;20026;-81
2023/12/29 02:31:19;;;;;;;1.63;1.52;;;8.10;99.90;;;;;;2073286;28;20059;-82
2023/12/29 02:32:22;;;;;;;2.25;1.50;;;8.10;99.90;;;;;;2072357;28;20120;-82
2023/12/29 02:33:25;;;;;;;1.50;1.30;;;8.00;99.90;;;;;;2076940;28;20032;-81
2023/12/29 02:34:29;;;;;;;1.92;1.50;;;8.20;99.90;;;;;;2077750;28;20036;-83
2023/12/29 02:35:35;;;;;;;1.63;1.40;;;8.10;99.90;;;;;;2071656;28;20144;-81
2023/12/29 02:36:42;;;;;;;1.60;1.50;;;8.10;99.90;;;;;;2075922;28;20042;-81
2023/12/29 02:37:43;;;;;;;1.50;1.40;;;8.10;99.90;;;;;;2068188;28;20112;-82
2023/12/29 02:38:44;;;;;;;2.05;1.50;;;8.10;99.90;;;;;;2080015;28;20025;-81
2023/12/29 02:39:46;;;;;;;1.50;1.40;;;8.10;99.90;;;;;;2076598;28;20057;-82
2023/12/29 02:40:46;;;;;;;1.65;1.38;;;8.10;99.90;;;;;;2079243;28;20021;-81
2023/12/29 02:41:49;;;;;;;1.33;1.23;;;8.10;99.90;;;;;;2077787;28;20033;-82
2023/12/29 02:42:49;;;;;;;1.40;1.23;;;8.10;99.90;;;;;;2079690;28;20037;-82
2023/12/29 02:43:50;;;;;;;2.42;1.50;;;8.10;99.90;;;;;;2076982;28;20044;-82
2023/12/29 02:44:51;;;;;;;1.45;1.35;;;8.10;99.90;;;;;;2069475;28;20045;-83
2023/12/29 02:45:51;;;;;;;1.48;1.33;;;8.10;99.90;;;;;;2070584;28;20018;-82
2023/12/29 02:46:53;;;;;;;1.38;1.27;;;8.20;99.90;;;;;;2068380;28;20041;-82
2023/12/29 02:47:53;;;;;;;1.98;1.40;;;8.20;99.90;;;;;;2068867;28;20421;-82
2023/12/29 02:48:54;;;;;;;1.77;1.42;;;8.20;99.90;;;;;;2068441;28;20686;-82
2023/12/29 02:49:56;;;;;;;2.20;1.60;;;8.20;99.90;;;;;;2068590;28;20030;-82
2023/12/29 02:50:56;;;;;;;1.50;1.40;;;8.20;99.90;;;;;;2076551;28;20029;-82
2023/12/29 02:51:57;;;;;;;1.70;1.52;;;8.10;99.90;;;;;;2079219;28;20040;-82
2023/12/29 02:52:57;;;;;;;1.35;1.25;;;8.00;99.90;;;;;;2084825;28;20033;-82
2023/12/29 02:53:59;;;;;;;2.60;1.40;;;8.00;99.90;;;;;;2076195;28;20017;-82
2023/12/29 02:55:00;;;;;;;2.13;1.30;;;8.00;99.90;;;;;;2078514;28;20167;-82
2023/12/29 02:56:01;;;;;;;1.67;1.40;;;8.00;99.90;;;;;;2077039;28;20640;-81
2023/12/29 02:57:01;;;;;;;1.35;1.25;;;8.00;99.90;;;;;;2076115;28;20116;-82
2023/12/29 02:58:02;;;;;;;2.75;1.40;;;8.00;99.90;;;;;;2086793;28;20188;-82
2023/12/29 02:59:03;;;;;;;2.00;1.38;;;8.10;99.90;;;;;;2077094;28;20025;-82
2023/12/29 03:00:04;;;;;;;1.52;1.42;;;8.00;99.90;;;;;;2073500;28;20112;-82
2023/12/29 03:01:05;;;;;;;1.50;1.40;;;8.00;99.90;;;;;;2070472;28;20459;-81
2023/12/29 03:02:05;;;;;;;1.40;1.30;;;8.00;99.90;;;;;;2069870;28;20034;-82
2023/12/29 03:03:06;;;;;;;1.50;1.40;;;8.00;99.90;;;;;;2074999;28;20119;-83
2023/12/29 03:04:07;;;;;;;1.30;1.20;;;8.00;99.90;;;;;;2078680;28;20033;-81
2023/12/29 03:05:08;;;;;;;1.30;1.20;;;8.00;99.90;;;;;;2078572;28;20025;-83
2023/12/29 03:06:09;;;;;;;1.52;1.20;;;8.00;99.90;;;;;;2078336;28;20025;-81
2023/12/29 03:07:09;;;;;;;1.40;1.30;;;8.10;99.90;;;;;;2074805;28;20018;-77
2023/12/29 03:08:10;;;;;;;1.33;1.20;;;8.10;99.90;;;;;;2078291;28;20032;-74
2023/12/29 03:09:11;;;;;;;1.30;1.20;;;8.10;99.90;;;;;;2077555;28;20025;-74
2023/12/29 03:10:11;;;;;;;1.40;1.30;;;8.10;99.90;;;;;;2074369;28;20041;-78
2023/12/29 03:11:13;;;;;;;1.92;1.23;;;8.20;99.90;;;;;;2078327;28;20029;-79
2023/12/29 03:12:13;;;;;;;1.40;1.30;;;8.20;99.90;;;;;;2078413;28;20059;-79
2023/12/29 03:13:14;;;;;;;1.58;1.40;;;8.20;99.90;;;;;;2074490;28;20061;-81
2023/12/29 03:14:15;;;;;;;1.83;1.30;;;8.10;99.90;;;;;;2070102;28;20043;-80
2023/12/29 03:15:16;;;;;;;1.60;1.40;;;8.00;99.90;;;;;;2078458;28;20033;-80
2023/12/29 03:16:16;;;;;;;1.30;1.20;;;7.90;99.90;;;;;;2078204;28;20030;-80
2023/12/29 03:17:17;;;;;;;1.60;1.50;;;7.90;99.90;;;;;;2078778;28;20053;-80
2023/12/29 03:18:17;;;;;;;1.52;1.42;;;7.80;99.90;;;;;;2086691;28;20025;-80
2023/12/29 03:19:18;;;;;;;1.50;1.40;;;7.80;99.90;;;;;;2086666;28;20086;-80
2023/12/29 03:20:19;;;;;;;1.50;1.40;;;7.70;99.90;;;;;;2075693;28;20033;-80
2023/12/29 03:21:19;;;;;;;1.30;1.20;;;7.60;99.90;;;;;;2085638;28;20395;-80
2023/12/29 03:22:20;;;;;;;1.50;1.40;;;7.60;99.90;;;;;;2078351;28;20032;-80
2023/12/29 03:23:21;;;;;;;1.70;1.60;;;7.60;99.90;;;;;;2075707;28;20507;-80
2023/12/29 03:24:22;;;;;;;1.50;1.40;;;7.50;99.90;;;;;;2077320;28;20164;-80
2023/12/29 03:25:23;;;;;;;1.40;1.30;;;7.40;99.90;;;;;;2086618;28;20077;-80
2023/12/29 03:26:24;;;;;;;1.65;1.55;;;7.40;99.90;;;;;;2082920;28;20492;-80
2023/12/29 03:27:25;;;;;;;1.88;1.40;;;7.30;99.90;;;;;;2075381;28;20033;-80
2023/12/29 03:28:25;;;;;;;2.78;1.70;;;7.30;99.90;;;;;;2078421;28;20115;-80
2023/12/29 03:29:26;;;;;;;1.70;1.60;;;7.20;99.90;;;;;;2076525;28;20025;-80
2023/12/29 03:30:27;;;;;;;1.90;1.42;;;7.20;99.90;;;;;;2076905;28;20032;-79
2023/12/29 03:31:28;;;;;;;2.60;1.30;;;7.10;99.90;;;;;;2071286;28;20506;-80
2023/12/29 03:32:29;;;;;;;1.70;1.60;;;7.10;99.90;;;;;;2086906;28;20549;-80
2023/12/29 03:33:30;;;;;;;1.50;1.40;;;7.10;99.90;;;;;;2076430;28;20033;-80
2023/12/29 03:34:30;;;;;;;1.42;1.33;;;7.10;99.90;;;;;;2069725;28;20088;-80
2023/12/29 03:35:31;;;;;;;1.65;1.45;;;7.10;99.90;;;;;;2071910;28;20146;-80
2023/12/29 03:36:31;;;;;;;1.40;1.30;;;7.10;99.90;;;;;;2078975;28;20475;-80
2023/12/29 03:37:32;;;;;;;1.65;1.50;;;7.00;99.90;;;;;;2077616;28;20498;-80
2023/12/29 03:38:33;;;;;;;1.60;1.50;;;7.10;99.90;;;;;;2080056;28;20040;-80
2023/12/29 03:39:35;;;;;;;1.58;1.48;;;7.10;99.90;;;;;;2079033;28;20021;-80
2023/12/29 03:40:36;;;;;;;1.50;1.40;;;7.10;99.90;;;;;;2060997;28;20048;-80
2023/12/29 03:41:36;;;;;;;1.50;1.40;;;7.00;99.90;;;;;;2062535;28;20034;-80
2023/12/29 03:42:37;;;;;;;2.10;1.90;;;7.10;99.90;;;;;;2069665;28;20541;-80
2023/12/29 03:43:37;;;;;;;2.88;1.63;;;7.10;99.90;;;;;;2086290;28;20510;-80
2023/12/29 03:44:38;;;;;;;2.08;1.60;;;7.10;99.90;;;;;;2075767;28;20049;-80
2023/12/29 03:45:38;;;;;;;1.70;1.60;;;7.10;99.90;;;;;;2078851;28;20483;-79
2023/12/29 03:46:39;;;;;;;3.05;1.50;;;7.10;99.90;;;;;;2066324;28;20108;-80
2023/12/29 03:47:40;;;;;;;2.33;1.90;;;7.10;99.90;;;;;;2074801;28;20043;-80
2023/12/29 03:48:40;;;;;;;1.85;1.58;;;7.10;99.90;;;;;;2087137;28;20087;-80
2023/12/29 03:49:41;;;;;;;2.95;1.90;;;7.10;99.90;;;;;;2078118;28;20090;-79
2023/12/29 03:50:42;;;;;;;2.88;1.65;;;7.10;99.90;;;;;;2066470;28;20033;-80
2023/12/29 03:51:43;;;;;;;1.98;1.63;;;7.10;99.90;;;;;;2070092;28;20018;-79
2023/12/29 03:52:44;;;;;;;1.83;1.40;;;7.10;99.90;;;;;;2078160;28;20144;-80
2023/12/29 03:53:45;;;;;;;2.10;1.60;;;7.10;99.90;;;;;;2070987;28;20033;-77
2023/12/29 03:54:45;;;;;;;2.83;1.70;;;7.10;99.90;;;;;;2079138;28;20318;-80
2023/12/29 03:55:47;;;;;;;2.85;1.80;;;7.20;99.90;;;;;;2086298;28;20023;-79
2023/12/29 03:56:47;;;;;;;4.45;2.33;;;7.20;99.90;;;;;;2074514;28;20079;-78
2023/12/29 03:57:48;;;;;;;4.70;2.22;;;7.20;99.90;;;;;;2078128;28;20029;-79
2023/12/29 03:58:48;;;;;;;3.88;1.77;;;7.30;99.90;;;;;;2086457;28;20028;-79
2023/12/29 03:59:49;;;;;;;2.15;1.70;;;7.30;99.90;;;;;;2082959;28;20093;-79
2023/12/29 04:00:49;;;;;;;1.92;1.70;;;7.30;99.90;;;;;;2078494;28;20075;-79
2023/12/29 04:01:50;;;;;;;2.70;1.80;;;7.30;99.90;;;;;;2078089;28;20036;-79
2023/12/29 04:02:51;;;;;;;2.13;1.83;;;7.20;99.90;;;;;;2074992;28;20542;-79
2023/12/29 04:03:52;;;;;;;1.80;1.70;;;7.20;99.90;;;;;;2077627;28;20032;-80
2023/12/29 04:04:52;;;;;;;1.60;1.50;;;7.20;99.90;;;;;;2078417;28;20025;-79
2023/12/29 04:05:53;;;;;;;1.63;1.52;;;7.20;99.90;;;;;;2075054;28;20021;-80
2023/12/29 04:06:53;;;;;;;1.67;1.58;;;7.20;99.90;;;;;;2079807;28;20040;-79
2023/12/29 04:07:54;;;;;;;2.53;1.60;;;7.20;99.90;;;;;;2080398;28;20111;-79
2023/12/29 04:08:55;;;;;;;1.83;1.63;;;7.20;99.90;;;;;;2076727;28;20026;-79
2023/12/29 04:09:55;;;;;;;2.03;1.50;;;7.20;99.90;;;;;;2078769;28;20647;-79
2023/12/29 04:10:56;;;;;;;1.60;1.45;;;7.40;99.90;;;;;;2079423;28;20068;-79
2023/12/29 04:11:57;;;;;;;1.60;1.50;;;7.60;99.90;;;;;;2077227;28;20090;-79
2023/12/29 04:12:57;;;;;;;2.20;1.95;;;7.70;99.90;;;;;;2086583;28;20718;-79
2023/12/29 04:13:58;;;;;;;1.92;1.60;;;7.70;99.90;;;;;;2080514;28;20029;-78
2023/12/29 04:14:58;;;;;;;1.60;1.50;;;7.80;99.90;;;;;;2077335;28;20079;-79
2023/12/29 04:15:59;;;;;;;1.58;1.48;;;7.90;99.90;;;;;;2080397;28;20029;-79
2023/12/29 04:17:03;;;;;;;2.42;1.92;;;7.80;99.90;;;;;;2088003;28;20031;-79
2023/12/29 04:18:03;;;;;;;1.60;1.50;;;7.80;99.90;;;;;;2078857;28;20021;-79
2023/12/29 04:19:04;;;;;;;1.60;1.50;;;7.80;99.90;;;;;;2077928;28;20290;-79
2023/12/29 04:20:05;;;;;;;1.50;1.40;;;7.70;99.90;;;;;;2079798;28;20466;-79
2023/12/29 04:21:08;;;;;;;1.58;1.48;;;7.70;99.90;;;;;;2079672;28;20025;-79
2023/12/29 04:22:09;;;;;;;2.55;1.40;;;7.70;99.90;;;;;;2078387;28;20391;-79
2023/12/29 04:23:11;;;;;;;1.70;1.60;;;7.70;99.90;;;;;;2076955;28;20055;-79
2023/12/29 04:24:12;;;;;;;2.10;1.90;;;7.60;99.90;;;;;;2077000;28;20049;-79
2023/12/29 04:25:12;;;;;;;3.13;1.60;;;7.60;99.90;;;;;;2076747;28;20026;-80
2023/12/29 04:26:13;;;;;;;1.60;1.40;;;7.60;99.90;;;;;;2075446;28;20530;-79
2023/12/29 04:27:15;;;;;;;2.35;1.60;;;7.70;99.90;;;;;;2075703;28;20109;-80
2023/12/29 04:28:15;;;;;;;3.20;1.77;;;8.00;99.90;;;;;;2079392;28;20036;-79
2023/12/29 04:29:16;;;;;;;2.35;1.60;;;8.00;99.90;;;;;;2079097;28;20055;-80
2023/12/29 04:30:17;;;;;;;2.10;1.70;;;8.00;99.90;;;;;;2074828;28;20030;-75
2023/12/29 04:31:17;;;;;;;1.70;1.60;;;8.00;99.90;;;;;;2073454;28;20048;-80
2023/12/29 04:32:18;;;;;;;1.80;1.70;;;8.00;99.90;;;;;;2079581;28;20099;-79
2023/12/29 04:33:18;;;;;;;1.70;1.60;;;7.90;99.90;;;;;;2076281;28;20365;-79
2023/12/29 04:34:19;;;;;;;2.72;1.80;;;7.90;99.90;;;;;;2076433;28;20040;-80
2023/12/29 04:35:20;;;;;;;1.90;1.70;;;7.90;99.90;;;;;;2079549;28;20044;-78
2023/12/29 04:36:20;;;;;;;3.38;1.90;;;7.90;99.90;;;;;;2071305;28;20029;-79
2023/12/29 04:37:21;;;;;;;2.40;1.70;;;7.80;99.90;;;;;;2071657;28;20022;-79
2023/12/29 04:38:21;;;;;;;1.80;1.70;;;7.90;99.90;;;;;;2087674;28;20584;-78
2023/12/29 04:39:22;;;;;;;1.80;1.70;;;8.00;99.90;;;;;;2079310;28;20033;-80
2023/12/29 04:40:23;;;;;;;2.10;1.90;;;8.10;99.90;;;;;;2074538;28;20515;-76
2023/12/29 04:41:23;;;;;;;2.63;1.90;;;8.20;99.90;;;;;;2079075;28;20026;-77
2023/12/29 04:42:24;;;;;;;2.45;1.83;;;8.10;99.90;;;;;;2079362;28;20068;-77
2023/12/29 04:43:24;;;;;;;2.72;1.80;;;8.10;99.90;;;;;;2075866;28;20057;-76
2023/12/29 04:44:25;;;;;;;2.22;1.88;;;8.00;99.90;;;;;;2079108;28;20034;-77
2023/12/29 04:45:25;;;;;;;2.10;1.90;;;8.00;99.90;;;;;;2080130;28;20032;-77
2023/12/29 04:46:26;;;;;;;2.65;1.90;;;7.90;99.90;;;;;;2075901;28;20108;-77
2023/12/29 04:47:26;;;;;;;2.65;2.03;;;7.90;99.90;;;;;;2067138;28;20103;-77
2023/12/29 04:48:27;;;;;;;2.42;2.03;;;8.00;99.90;;;;;;2079232;28;20094;-77
2023/12/29 04:49:27;;;;;;;2.10;1.90;;;8.00;99.90;;;;;;2076082;28;20465;-77
2023/12/29 04:50:28;;;;;;;2.38;1.95;;;8.10;99.90;;;;;;2078084;28;20045;-76
2023/12/29 04:51:28;;;;;;;2.00;1.80;;;8.30;99.90;;;;;;2079240;28;20029;-77
2023/12/29 04:52:29;;;;;;;2.13;1.92;;;8.40;99.90;;;;;;2077005;28;20293;-76
2023/12/29 04:53:29;;;;;;;2.80;1.92;;;8.40;99.90;;;;;;2078766;28;20202;-77
2023/12/29 04:54:30;;;;;;;2.83;2.00;;;8.30;99.90;;;;;;2079043;28;20097;-76
2023/12/29 04:55:30;;;;;;;2.63;2.10;;;8.30;99.90;;;;;;2076633;28;20029;-77
2023/12/29 04:56:31;;;;;;;3.22;1.90;;;8.40;99.90;;;;;;2077574;28;20033;-76
2023/12/29 04:57:31;;;;;;;2.20;2.00;;;8.50;99.90;;;;;;2078975;28;20083;-76
2023/12/29 04:58:32;;;;;;;2.00;1.90;;;8.60;99.90;;;;;;2068551;28;20073;-76
2023/12/29 04:59:33;;;;;;;2.17;1.98;;;8.60;99.90;;;;;;2077651;28;20099;-76
2023/12/29 05:00:33;;;;;;;3.40;2.00;;;8.50;99.90;;;;;;2077444;28;20032;-75
2023/12/29 05:01:34;;;;;;;2.63;2.10;;;8.50;99.90;;;;;;2084962;28;20040;-76
2023/12/29 05:02:35;;;;;;;2.20;2.00;;;8.60;99.90;;;;;;2083340;28;20037;-77
2023/12/29 05:03:35;;;;;;;2.13;1.90;;;8.50;99.90;;;;;;2079780;28;20133;-76
2023/12/29 05:04:37;;;;;;;2.30;1.90;;;8.40;99.90;;;;;;2077699;28;20060;-76
2023/12/29 05:05:38;;;;;;;2.30;2.10;;;8.40;99.90;;;;;;2077658;28;20044;-76
2023/12/29 05:06:38;;;;;;;3.95;3.20;;;8.30;99.90;;;;;;2079857;28;20108;-77
2023/12/29 05:07:39;;;;;;;5.82;3.92;;;8.20;99.90;;;;;;2078312;28;20577;-76
2023/12/29 05:08:39;;;;;;;8.60;7.03;;;8.20;99.90;;;;;;2077581;28;20152;-79
2023/12/29 05:09:40;;;;;;;14.10;11.48;;;8.20;99.90;;;;;;2075953;28;20134;-78
2023/12/29 05:10:41;;;;;;;8.10;6.93;;;8.10;99.90;;;;;;2070927;28;20303;-77
2023/12/29 05:11:41;;;;;;;6.70;4.30;;;8.10;99.90;;;;;;2076499;28;20021;-77
2023/12/29 05:12:42;;;;;;;5.22;4.05;;;8.10;99.90;;;;;;2076349;28;20490;-78
2023/12/29 05:13:42;;;;;;;5.40;3.83;;;8.00;99.90;;;;;;2079205;28;20483;-76
2023/12/29 05:14:43;;;;;;;2.33;2.13;;;8.00;99.90;;;;;;2086306;28;20028;-77
2023/12/29 05:15:43;;;;;;;4.68;3.45;;;8.10;99.90;;;;;;2078916;28;20026;-77
2023/12/29 05:16:44;;;;;;;3.97;3.10;;;8.10;99.90;;;;;;2071979;28;20107;-76
2023/12/29 05:17:44;;;;;;;4.95;2.80;;;8.00;99.90;;;;;;2069935;28;20091;-76
2023/12/29 05:18:45;;;;;;;4.18;2.03;;;8.00;99.90;;;;;;2068090;28;20755;-77
2023/12/29 05:19:46;;;;;;;3.55;2.10;;;8.10;99.90;;;;;;2079233;28;20419;-77
2023/12/29 05:20:46;;;;;;;3.20;2.13;;;8.20;99.90;;;;;;2079040;28;20061;-77
2023/12/29 05:21:50;;;;;;;4.05;2.22;;;8.20;99.90;;;;;;2075818;28;20127;-77
2023/12/29 05:22:51;;;;;;;3.08;2.20;;;8.20;99.90;;;;;;2079497;28;20017;-76
2023/12/29 05:23:52;;;;;;;2.92;2.10;;;8.10;99.90;;;;;;2087402;28;20043;-76